Rb Leah — V7NA8 — position and weather

sailwx.info

Track history (hours):
 
Tides and Currents Weather Stations Pressure Air Temp Water Temp Dewpoint Dewpoint Depression Visibility Wind Speed Wind Dir Waves Ship Positions

Rb Leah

Last reported at 2017-Oct-24 22:17 UTC. Time now 2017-Nov-19 16:05 UTC.
Position N 22°26' E 119°37'.
Warning: this ship's position is 25 days out of date.

Length 229 m; draft 14.5 m.

Type: Cargo ship. MMSI: 538006430.

Date/timePositionNaut miles runAvg speedWind from/ knotsBaromVisibWave heightAir tempDewpointWater temp
2017-Oct-24 22:17N 22°26' E 119°37'  
2017-Oct-18 19:30N 01°15' E 104°03'613.0
2017-Oct-18 19:00N 01°14' E 103°57'713.2
2017-Oct-18 18:30N 01°11' E 103°51'612.5
2017-Oct-18 18:01N 01°08' E 103°45'611.8
2017-Oct-18 17:30N 01°04' E 103°41'611.4
2017-Oct-18 16:59N 01°05' E 103°35'612.3
2017-Oct-18 16:29N 01°08' E 103°29'612.5
2017-Oct-18 15:59N 01°11' E 103°24'712.9
2017-Oct-18 15:29N 01°16' E 103°19'1113.1
2017-Oct-18 14:39N 01°23' E 103°11'913.3
2017-Oct-18 13:56N 01°28' E 103°03'  
Track history (hours):
 
Tides and Currents Weather Stations Pressure Air Temp Water Temp Dewpoint Dewpoint Depression Visibility Wind Speed Wind Dir Waves Ship Positions

Rb Leah

Last reported at 2017-Oct-24 22:17 UTC. Time now 2017-Nov-19 16:05 UTC.
Position N 22°26' E 119°37'.
Warning: this ship's position is 25 days out of date.

Length 229 m; draft 14.5 m.

Type: Cargo ship. MMSI: 538006430.

Date/timePositionNaut miles runAvg speedWind from/ knotsBaromVisibWave heightAir tempDewpointWater temp
2017-Oct-24 22:17N 22°26' E 119°37'  
2017-Oct-18 19:30N 01°15' E 104°03'613.0
2017-Oct-18 19:00N 01°14' E 103°57'713.2
2017-Oct-18 18:30N 01°11' E 103°51'612.5
2017-Oct-18 18:01N 01°08' E 103°45'611.8
2017-Oct-18 17:30N 01°04' E 103°41'611.4
2017-Oct-18 16:59N 01°05' E 103°35'612.3
2017-Oct-18 16:29N 01°08' E 103°29'612.5
2017-Oct-18 15:59N 01°11' E 103°24'712.9
2017-Oct-18 15:29N 01°16' E 103°19'1113.1
2017-Oct-18 14:39N 01°23' E 103°11'913.3
2017-Oct-18 13:56N 01°28' E 103°03'  

Dump ship's entire track history